Aviation Digital Data Service (ADDS)

Output produced by METARs form (1345 UTC 01 September 2014)
found at http://aviationweather.gov/adds/metars/
 
KFRG 011253Z 24004KT 9SM BKN005 23/23 A3001 RMK AO2 SLP162 T02330228
KISP 011256Z 22004KT 8SM BKN006 BKN090 BKN200 24/22 A3000 RMK AO2 SLP156 T02390222
KISP 011252Z 22005KT 8SM BKN006 BKN090 BKN200 24/22 A3000 RMK AO2
KISP 011336Z 0114/0212 23004KT P6SM SCT008 BKN060 
     TEMPO 0114/0116 BKN008 
     FM011600 22007KT P6SM SCT020 BKN040 
     TEMPO 0116/0120 SHRA 
     FM020100 VRB03KT P6SM SCT025 SCT040 
     FM020700 VRB03KT 4SM BR SCT020 SCT040
       
KJFK 011251Z 23007KT 10SM FEW010 SCT170 BKN250 25/23 A3001 RMK AO2 SLP163 T02500228 $
KJFK 011336Z 0114/0218 21006KT P6SM SCT015 BKN060 
     FM011600 18010KT P6SM SCT025 BKN040 
     TEMPO 0116/0120 SHRA 
     FM020100 21007KT 6SM BR SCT025 SCT040 
     FM020700 VRB03KT 6SM BR SCT020 SCT040 
     FM021500 23007KT P6SM SCT050
       
KBDR 011252Z 22007KT 8SM CLR 25/23 A3000 RMK AO2 SLP159 T02500228
KBDR 011336Z 0114/0212 22007KT 6SM BR FEW010 SCT060 
     FM011600 22008KT P6SM SCT020 BKN040 
     TEMPO 0116/0120 SHRA 
     FM020100 VRB03KT P6SM SCT025 SCT040 
     FM020700 VRB03KT 4SM BR SCT020 SCT040